sensor_id;sensor_type;location;lat;lon;timestamp;P1;durP1;ratioP1;P2;durP2;ratioP2
11777;SDS011;5946;51.770;8.548;2022-11-14T00:00:48;25.17;;;16.47;;
11777;SDS011;5946;51.770;8.548;2022-11-14T00:03:14;23.60;;;16.00;;
11777;SDS011;5946;51.770;8.548;2022-11-14T00:05:41;26.67;;;17.07;;
11777;SDS011;5946;51.770;8.548;2022-11-14T00:08:18;24.33;;;16.77;;
11777;SDS011;5946;51.770;8.548;2022-11-14T00:10:45;23.90;;;16.37;;
11777;SDS011;5946;51.770;8.548;2022-11-14T00:13:11;24.73;;;16.80;;
11777;SDS011;5946;51.770;8.548;2022-11-14T00:15:37;23.50;;;16.73;;
11777;SDS011;5946;51.770;8.548;2022-11-14T00:18:03;23.97;;;16.43;;
11777;SDS011;5946;51.770;8.548;2022-11-14T00:20:29;25.63;;;16.10;;
11777;SDS011;5946;51.770;8.548;2022-11-14T00:22:55;23.67;;;16.63;;
11777;SDS011;5946;51.770;8.548;2022-11-14T00:25:21;27.07;;;17.87;;
11777;SDS011;5946;51.770;8.548;2022-11-14T00:27:47;26.43;;;17.17;;
11777;SDS011;5946;51.770;8.548;2022-11-14T00:30:13;25.67;;;17.33;;
11777;SDS011;5946;51.770;8.548;2022-11-14T00:32:39;26.17;;;18.40;;
11777;SDS011;5946;51.770;8.548;2022-11-14T00:35:05;29.10;;;18.57;;
11777;SDS011;5946;51.770;8.548;2022-11-14T00:37:33;27.77;;;17.83;;
11777;SDS011;5946;51.770;8.548;2022-11-14T00:39:59;29.93;;;19.10;;
11777;SDS011;5946;51.770;8.548;2022-11-14T00:42:25;30.20;;;18.70;;
11777;SDS011;5946;51.770;8.548;2022-11-14T00:44:51;28.37;;;18.70;;
11777;SDS011;5946;51.770;8.548;2022-11-14T00:47:17;31.67;;;19.83;;
11777;SDS011;5946;51.770;8.548;2022-11-14T00:49:43;28.60;;;18.63;;
11777;SDS011;5946;51.770;8.548;2022-11-14T00:52:09;30.20;;;18.67;;
11777;SDS011;5946;51.770;8.548;2022-11-14T00:54:35;29.27;;;19.37;;
11777;SDS011;5946;51.770;8.548;2022-11-14T00:57:01;29.23;;;19.87;;
11777;SDS011;5946;51.770;8.548;2022-11-14T00:59:27;30.40;;;18.33;;
11777;SDS011;5946;51.770;8.548;2022-11-14T01:01:54;30.83;;;19.93;;
11777;SDS011;5946;51.770;8.548;2022-11-14T01:04:20;32.30;;;20.03;;
11777;SDS011;5946;51.770;8.548;2022-11-14T01:06:46;27.47;;;17.67;;
11777;SDS011;5946;51.770;8.548;2022-11-14T01:09:12;30.70;;;19.13;;
11777;SDS011;5946;51.770;8.548;2022-11-14T01:11:38;30.40;;;18.83;;
11777;SDS011;5946;51.770;8.548;2022-11-14T01:14:07;29.13;;;18.40;;
11777;SDS011;5946;51.770;8.548;2022-11-14T01:16:33;31.97;;;20.13;;
11777;SDS011;5946;51.770;8.548;2022-11-14T01:19:00;32.23;;;19.80;;
11777;SDS011;5946;51.770;8.548;2022-11-14T01:21:26;31.40;;;19.53;;
11777;SDS011;5946;51.770;8.548;2022-11-14T01:23:52;32.17;;;20.30;;
11777;SDS011;5946;51.770;8.548;2022-11-14T01:26:18;31.50;;;19.83;;
11777;SDS011;5946;51.770;8.548;2022-11-14T01:28:44;33.53;;;20.33;;
11777;SDS011;5946;51.770;8.548;2022-11-14T01:31:20;31.90;;;20.30;;
11777;SDS011;5946;51.770;8.548;2022-11-14T01:33:50;29.33;;;18.37;;
11777;SDS011;5946;51.770;8.548;2022-11-14T01:36:16;29.53;;;19.53;;
11777;SDS011;5946;51.770;8.548;2022-11-14T01:38:42;30.10;;;18.93;;
11777;SDS011;5946;51.770;8.548;2022-11-14T01:41:08;29.33;;;19.23;;
11777;SDS011;5946;51.770;8.548;2022-11-14T01:43:35;30.63;;;20.30;;
11777;SDS011;5946;51.770;8.548;2022-11-14T01:46:06;31.37;;;19.33;;
11777;SDS011;5946;51.770;8.548;2022-11-14T01:53:32;33.53;;;20.17;;
11777;SDS011;5946;51.770;8.548;2022-11-14T01:55:59;32.70;;;20.77;;
11777;SDS011;5946;51.770;8.548;2022-11-14T01:58:26;35.00;;;21.17;;
11777;SDS011;5946;51.770;8.548;2022-11-14T02:00:53;38.00;;;21.53;;
11777;SDS011;5946;51.770;8.548;2022-11-14T02:03:20;37.13;;;21.87;;
11777;SDS011;5946;51.770;8.548;2022-11-14T02:05:46;35.97;;;21.23;;
11777;SDS011;5946;51.770;8.548;2022-11-14T02:08:13;35.37;;;22.20;;
11777;SDS011;5946;51.770;8.548;2022-11-14T02:10:40;34.00;;;20.77;;
11777;SDS011;5946;51.770;8.548;2022-11-14T02:13:06;34.77;;;21.03;;
11777;SDS011;5946;51.770;8.548;2022-11-14T02:15:32;37.63;;;21.80;;
11777;SDS011;5946;51.770;8.548;2022-11-14T02:18:00;32.57;;;20.93;;
11777;SDS011;5946;51.770;8.548;2022-11-14T02:20:27;34.20;;;21.67;;
11777;SDS011;5946;51.770;8.548;2022-11-14T02:22:55;37.83;;;21.60;;
11777;SDS011;5946;51.770;8.548;2022-11-14T02:25:21;36.83;;;21.50;;
11777;SDS011;5946;51.770;8.548;2022-11-14T02:27:47;35.97;;;22.13;;
11777;SDS011;5946;51.770;8.548;2022-11-14T02:30:15;33.50;;;20.97;;
11777;SDS011;5946;51.770;8.548;2022-11-14T02:32:42;36.43;;;21.43;;
11777;SDS011;5946;51.770;8.548;2022-11-14T02:35:08;35.53;;;21.17;;
11777;SDS011;5946;51.770;8.548;2022-11-14T02:37:34;37.10;;;21.07;;
11777;SDS011;5946;51.770;8.548;2022-11-14T02:40:00;39.03;;;21.83;;
11777;SDS011;5946;51.770;8.548;2022-11-14T02:42:26;34.53;;;21.53;;
11777;SDS011;5946;51.770;8.548;2022-11-14T02:44:52;36.97;;;21.90;;
11777;SDS011;5946;51.770;8.548;2022-11-14T02:47:18;35.60;;;21.13;;
11777;SDS011;5946;51.770;8.548;2022-11-14T02:49:44;34.83;;;21.63;;
11777;SDS011;5946;51.770;8.548;2022-11-14T02:52:10;32.60;;;21.07;;
11777;SDS011;5946;51.770;8.548;2022-11-14T02:54:36;36.33;;;21.33;;
11777;SDS011;5946;51.770;8.548;2022-11-14T02:57:02;37.27;;;21.90;;
11777;SDS011;5946;51.770;8.548;2022-11-14T02:59:28;33.80;;;20.67;;
11777;SDS011;5946;51.770;8.548;2022-11-14T03:01:54;32.87;;;21.40;;
11777;SDS011;5946;51.770;8.548;2022-11-14T03:04:20;32.73;;;20.20;;
11777;SDS011;5946;51.770;8.548;2022-11-14T03:06:45;33.80;;;21.33;;
11777;SDS011;5946;51.770;8.548;2022-11-14T03:09:11;32.03;;;19.77;;
11777;SDS011;5946;51.770;8.548;2022-11-14T03:11:38;34.37;;;20.97;;
11777;SDS011;5946;51.770;8.548;2022-11-14T03:14:04;29.57;;;20.03;;
11777;SDS011;5946;51.770;8.548;2022-11-14T03:16:30;29.83;;;19.83;;
11777;SDS011;5946;51.770;8.548;2022-11-14T03:18:56;33.60;;;20.87;;
11777;SDS011;5946;51.770;8.548;2022-11-14T03:21:22;32.70;;;20.10;;
11777;SDS011;5946;51.770;8.548;2022-11-14T03:23:48;31.87;;;20.97;;
11777;SDS011;5946;51.770;8.548;2022-11-14T03:26:14;34.83;;;21.63;;
11777;SDS011;5946;51.770;8.548;2022-11-14T03:28:41;34.70;;;21.27;;
11777;SDS011;5946;51.770;8.548;2022-11-14T03:31:08;29.43;;;19.50;;
11777;SDS011;5946;51.770;8.548;2022-11-14T03:33:35;34.30;;;20.87;;
11777;SDS011;5946;51.770;8.548;2022-11-14T03:36:01;32.37;;;20.90;;
11777;SDS011;5946;51.770;8.548;2022-11-14T03:38:27;33.00;;;21.33;;
11777;SDS011;5946;51.770;8.548;2022-11-14T03:40:53;34.17;;;20.63;;
11777;SDS011;5946;51.770;8.548;2022-11-14T03:43:20;35.83;;;21.77;;
11777;SDS011;5946;51.770;8.548;2022-11-14T03:45:46;32.50;;;20.90;;
11777;SDS011;5946;51.770;8.548;2022-11-14T03:48:12;33.60;;;20.83;;
11777;SDS011;5946;51.770;8.548;2022-11-14T03:50:39;33.00;;;19.87;;
11777;SDS011;5946;51.770;8.548;2022-11-14T03:53:05;32.47;;;20.73;;
11777;SDS011;5946;51.770;8.548;2022-11-14T03:55:31;31.50;;;19.17;;
11777;SDS011;5946;51.770;8.548;2022-11-14T03:57:57;30.87;;;19.63;;
11777;SDS011;5946;51.770;8.548;2022-11-14T04:00:23;31.77;;;20.23;;
11777;SDS011;5946;51.770;8.548;2022-11-14T04:02:49;33.10;;;20.50;;
11777;SDS011;5946;51.770;8.548;2022-11-14T04:05:15;33.40;;;20.23;;
11777;SDS011;5946;51.770;8.548;2022-11-14T04:07:41;34.90;;;20.37;;
11777;SDS011;5946;51.770;8.548;2022-11-14T04:10:07;33.50;;;20.60;;
11777;SDS011;5946;51.770;8.548;2022-11-14T04:12:33;32.07;;;20.13;;
11777;SDS011;5946;51.770;8.548;2022-11-14T04:14:59;35.10;;;21.57;;
11777;SDS011;5946;51.770;8.548;2022-11-14T04:17:25;32.80;;;19.73;;
11777;SDS011;5946;51.770;8.548;2022-11-14T04:19:51;34.40;;;21.17;;
11777;SDS011;5946;51.770;8.548;2022-11-14T04:22:17;29.67;;;19.93;;
11777;SDS011;5946;51.770;8.548;2022-11-14T04:24:43;31.97;;;20.10;;
11777;SDS011;5946;51.770;8.548;2022-11-14T04:27:08;31.33;;;20.47;;
11777;SDS011;5946;51.770;8.548;2022-11-14T04:29:34;30.90;;;19.80;;
11777;SDS011;5946;51.770;8.548;2022-11-14T04:32:00;30.23;;;19.33;;
11777;SDS011;5946;51.770;8.548;2022-11-14T04:34:26;31.17;;;19.93;;
11777;SDS011;5946;51.770;8.548;2022-11-14T04:36:52;32.13;;;19.33;;
11777;SDS011;5946;51.770;8.548;2022-11-14T04:39:18;33.23;;;20.43;;
11777;SDS011;5946;51.770;8.548;2022-11-14T04:41:44;30.77;;;19.23;;
11777;SDS011;5946;51.770;8.548;2022-11-14T04:44:10;30.27;;;18.63;;
11777;SDS011;5946;51.770;8.548;2022-11-14T04:46:36;28.30;;;19.27;;
11777;SDS011;5946;51.770;8.548;2022-11-14T04:49:02;28.60;;;19.20;;
11777;SDS011;5946;51.770;8.548;2022-11-14T04:51:28;28.43;;;19.60;;
11777;SDS011;5946;51.770;8.548;2022-11-14T04:53:54;31.90;;;19.37;;
11777;SDS011;5946;51.770;8.548;2022-11-14T04:56:20;28.53;;;18.80;;
11777;SDS011;5946;51.770;8.548;2022-11-14T04:58:47;29.40;;;19.33;;
11777;SDS011;5946;51.770;8.548;2022-11-14T05:01:13;26.80;;;18.67;;
11777;SDS011;5946;51.770;8.548;2022-11-14T05:03:39;28.63;;;18.73;;
11777;SDS011;5946;51.770;8.548;2022-11-14T05:06:06;27.97;;;18.73;;
11777;SDS011;5946;51.770;8.548;2022-11-14T05:08:32;28.10;;;19.27;;
11777;SDS011;5946;51.770;8.548;2022-11-14T05:10:58;29.00;;;18.97;;
11777;SDS011;5946;51.770;8.548;2022-11-14T05:13:24;29.07;;;19.20;;
11777;SDS011;5946;51.770;8.548;2022-11-14T05:15:50;30.43;;;19.30;;
11777;SDS011;5946;51.770;8.548;2022-11-14T05:18:16;28.33;;;18.67;;
11777;SDS011;5946;51.770;8.548;2022-11-14T05:20:42;29.07;;;19.60;;
11777;SDS011;5946;51.770;8.548;2022-11-14T05:23:19;31.00;;;19.67;;
11777;SDS011;5946;51.770;8.548;2022-11-14T05:25:45;28.87;;;19.07;;
11777;SDS011;5946;51.770;8.548;2022-11-14T05:28:11;40.40;;;19.83;;
11777;SDS011;5946;51.770;8.548;2022-11-14T05:30:37;28.73;;;19.10;;
11777;SDS011;5946;51.770;8.548;2022-11-14T05:33:03;29.00;;;19.63;;
11777;SDS011;5946;51.770;8.548;2022-11-14T05:35:29;28.67;;;19.07;;
11777;SDS011;5946;51.770;8.548;2022-11-14T05:37:55;28.33;;;18.90;;
11777;SDS011;5946;51.770;8.548;2022-11-14T05:40:21;29.90;;;18.73;;
11777;SDS011;5946;51.770;8.548;2022-11-14T05:42:47;27.80;;;19.20;;
11777;SDS011;5946;51.770;8.548;2022-11-14T05:45:13;27.33;;;18.63;;
11777;SDS011;5946;51.770;8.548;2022-11-14T05:47:39;27.77;;;18.63;;
11777;SDS011;5946;51.770;8.548;2022-11-14T05:50:05;30.37;;;18.77;;
11777;SDS011;5946;51.770;8.548;2022-11-14T05:52:31;28.77;;;18.47;;
11777;SDS011;5946;51.770;8.548;2022-11-14T05:54:57;29.97;;;18.93;;
11777;SDS011;5946;51.770;8.548;2022-11-14T05:57:23;32.43;;;20.03;;
11777;SDS011;5946;51.770;8.548;2022-11-14T05:59:49;28.97;;;19.57;;
11777;SDS011;5946;51.770;8.548;2022-11-14T06:02:15;30.47;;;19.80;;
11777;SDS011;5946;51.770;8.548;2022-11-14T06:04:41;29.40;;;19.40;;
11777;SDS011;5946;51.770;8.548;2022-11-14T06:07:07;27.40;;;18.80;;
11777;SDS011;5946;51.770;8.548;2022-11-14T06:09:33;30.30;;;19.47;;
11777;SDS011;5946;51.770;8.548;2022-11-14T06:11:59;31.27;;;19.67;;
11777;SDS011;5946;51.770;8.548;2022-11-14T06:14:29;31.03;;;20.63;;
11777;SDS011;5946;51.770;8.548;2022-11-14T06:16:55;27.77;;;18.97;;
11777;SDS011;5946;51.770;8.548;2022-11-14T06:19:21;32.37;;;20.23;;
11777;SDS011;5946;51.770;8.548;2022-11-14T06:21:47;32.90;;;20.93;;
11777;SDS011;5946;51.770;8.548;2022-11-14T06:24:13;31.17;;;20.13;;
11777;SDS011;5946;51.770;8.548;2022-11-14T06:26:39;30.63;;;20.03;;
11777;SDS011;5946;51.770;8.548;2022-11-14T06:29:05;29.63;;;20.13;;
11777;SDS011;5946;51.770;8.548;2022-11-14T06:31:31;30.77;;;19.83;;
11777;SDS011;5946;51.770;8.548;2022-11-14T06:33:57;29.63;;;19.23;;
11777;SDS011;5946;51.770;8.548;2022-11-14T06:36:23;28.23;;;18.50;;
11777;SDS011;5946;51.770;8.548;2022-11-14T06:38:49;29.20;;;19.13;;
11777;SDS011;5946;51.770;8.548;2022-11-14T06:41:16;27.10;;;19.33;;
11777;SDS011;5946;51.770;8.548;2022-11-14T06:43:43;30.20;;;20.13;;
11777;SDS011;5946;51.770;8.548;2022-11-14T06:46:10;28.40;;;18.37;;
11777;SDS011;5946;51.770;8.548;2022-11-14T06:48:36;30.27;;;19.00;;
11777;SDS011;5946;51.770;8.548;2022-11-14T06:51:02;29.60;;;19.43;;
11777;SDS011;5946;51.770;8.548;2022-11-14T06:53:30;27.43;;;18.80;;
11777;SDS011;5946;51.770;8.548;2022-11-14T06:55:57;27.40;;;18.40;;
11777;SDS011;5946;51.770;8.548;2022-11-14T06:58:26;30.30;;;19.27;;
11777;SDS011;5946;51.770;8.548;2022-11-14T07:00:52;29.67;;;19.23;;
11777;SDS011;5946;51.770;8.548;2022-11-14T07:03:18;27.97;;;18.67;;
11777;SDS011;5946;51.770;8.548;2022-11-14T07:05:45;29.13;;;19.73;;
11777;SDS011;5946;51.770;8.548;2022-11-14T07:08:11;31.13;;;19.37;;
11777;SDS011;5946;51.770;8.548;2022-11-14T07:10:37;29.33;;;19.43;;
11777;SDS011;5946;51.770;8.548;2022-11-14T07:13:03;34.23;;;20.37;;
11777;SDS011;5946;51.770;8.548;2022-11-14T07:15:28;28.87;;;19.10;;
11777;SDS011;5946;51.770;8.548;2022-11-14T07:17:54;32.53;;;21.30;;
11777;SDS011;5946;51.770;8.548;2022-11-14T07:20:20;31.63;;;20.97;;
11777;SDS011;5946;51.770;8.548;2022-11-14T07:22:46;33.33;;;21.37;;
11777;SDS011;5946;51.770;8.548;2022-11-14T07:25:12;36.33;;;20.93;;
11777;SDS011;5946;51.770;8.548;2022-11-14T07:27:38;33.23;;;21.73;;
11777;SDS011;5946;51.770;8.548;2022-11-14T07:30:05;33.27;;;20.67;;
11777;SDS011;5946;51.770;8.548;2022-11-14T07:32:31;31.53;;;20.67;;
11777;SDS011;5946;51.770;8.548;2022-11-14T07:34:57;34.43;;;21.17;;
11777;SDS011;5946;51.770;8.548;2022-11-14T07:37:23;32.13;;;21.63;;
11777;SDS011;5946;51.770;8.548;2022-11-14T07:39:49;32.93;;;20.40;;
11777;SDS011;5946;51.770;8.548;2022-11-14T07:42:14;30.67;;;20.50;;
11777;SDS011;5946;51.770;8.548;2022-11-14T07:44:40;32.47;;;21.13;;
11777;SDS011;5946;51.770;8.548;2022-11-14T07:47:06;30.20;;;20.10;;
11777;SDS011;5946;51.770;8.548;2022-11-14T07:49:32;30.37;;;20.40;;
11777;SDS011;5946;51.770;8.548;2022-11-14T07:51:58;32.27;;;20.33;;
11777;SDS011;5946;51.770;8.548;2022-11-14T07:54:24;31.87;;;20.37;;
11777;SDS011;5946;51.770;8.548;2022-11-14T07:56:50;27.87;;;18.70;;
11777;SDS011;5946;51.770;8.548;2022-11-14T07:59:16;46.17;;;27.40;;
11777;SDS011;5946;51.770;8.548;2022-11-14T08:01:42;45.33;;;25.27;;
11777;SDS011;5946;51.770;8.548;2022-11-14T08:04:08;37.70;;;20.80;;
11777;SDS011;5946;51.770;8.548;2022-11-14T08:06:34;33.40;;;21.60;;
11777;SDS011;5946;51.770;8.548;2022-11-14T08:09:00;30.33;;;19.97;;
11777;SDS011;5946;51.770;8.548;2022-11-14T08:11:26;35.37;;;22.77;;
11777;SDS011;5946;51.770;8.548;2022-11-14T08:14:10;30.37;;;20.43;;
11777;SDS011;5946;51.770;8.548;2022-11-14T08:16:36;27.97;;;19.37;;
11777;SDS011;5946;51.770;8.548;2022-11-14T08:19:02;30.93;;;21.10;;
11777;SDS011;5946;51.770;8.548;2022-11-14T08:21:28;27.73;;;19.33;;
11777;SDS011;5946;51.770;8.548;2022-11-14T08:23:54;28.33;;;18.90;;
11777;SDS011;5946;51.770;8.548;2022-11-14T08:26:20;28.07;;;18.80;;
11777;SDS011;5946;51.770;8.548;2022-11-14T08:28:46;26.87;;;17.83;;
11777;SDS011;5946;51.770;8.548;2022-11-14T08:31:12;26.17;;;18.23;;
11777;SDS011;5946;51.770;8.548;2022-11-14T08:33:38;25.77;;;18.63;;
11777;SDS011;5946;51.770;8.548;2022-11-14T08:36:05;26.27;;;18.33;;
11777;SDS011;5946;51.770;8.548;2022-11-14T08:38:31;25.63;;;17.37;;
11777;SDS011;5946;51.770;8.548;2022-11-14T08:41:01;24.17;;;17.53;;
11777;SDS011;5946;51.770;8.548;2022-11-14T08:43:27;22.67;;;16.23;;
11777;SDS011;5946;51.770;8.548;2022-11-14T08:45:57;24.33;;;17.20;;
11777;SDS011;5946;51.770;8.548;2022-11-14T08:48:24;24.53;;;17.60;;
11777;SDS011;5946;51.770;8.548;2022-11-14T08:50:50;23.80;;;17.30;;
11777;SDS011;5946;51.770;8.548;2022-11-14T08:53:16;22.00;;;16.47;;
11777;SDS011;5946;51.770;8.548;2022-11-14T08:55:45;22.23;;;15.73;;
11777;SDS011;5946;51.770;8.548;2022-11-14T08:58:11;22.57;;;16.70;;
11777;SDS011;5946;51.770;8.548;2022-11-14T09:00:37;24.27;;;17.27;;
11777;SDS011;5946;51.770;8.548;2022-11-14T09:03:07;26.10;;;17.33;;
11777;SDS011;5946;51.770;8.548;2022-11-14T09:05:33;22.23;;;16.40;;
11777;SDS011;5946;51.770;8.548;2022-11-14T09:07:59;22.23;;;16.37;;
11777;SDS011;5946;51.770;8.548;2022-11-14T09:10:25;22.20;;;16.67;;
11777;SDS011;5946;51.770;8.548;2022-11-14T09:12:55;23.87;;;17.37;;
11777;SDS011;5946;51.770;8.548;2022-11-14T09:15:21;23.60;;;17.00;;
11777;SDS011;5946;51.770;8.548;2022-11-14T09:17:47;25.60;;;17.20;;
11777;SDS011;5946;51.770;8.548;2022-11-14T09:20:13;21.53;;;16.40;;
11777;SDS011;5946;51.770;8.548;2022-11-14T09:22:39;23.80;;;17.50;;
11777;SDS011;5946;51.770;8.548;2022-11-14T09:25:05;27.90;;;17.93;;
11777;SDS011;5946;51.770;8.548;2022-11-14T09:27:31;22.77;;;16.83;;
11777;SDS011;5946;51.770;8.548;2022-11-14T09:29:57;24.67;;;17.97;;
11777;SDS011;5946;51.770;8.548;2022-11-14T09:32:23;24.00;;;16.57;;
11777;SDS011;5946;51.770;8.548;2022-11-14T09:34:49;24.57;;;17.20;;
11777;SDS011;5946;51.770;8.548;2022-11-14T09:37:15;23.17;;;17.03;;
11777;SDS011;5946;51.770;8.548;2022-11-14T09:39:41;25.43;;;16.73;;
11777;SDS011;5946;51.770;8.548;2022-11-14T09:44:49;23.33;;;16.30;;
11777;SDS011;5946;51.770;8.548;2022-11-14T09:47:26;23.10;;;16.47;;
11777;SDS011;5946;51.770;8.548;2022-11-14T09:49:55;26.37;;;17.07;;
11777;SDS011;5946;51.770;8.548;2022-11-14T09:52:38;22.33;;;16.60;;
11777;SDS011;5946;51.770;8.548;2022-11-14T09:55:19;22.70;;;16.73;;
11777;SDS011;5946;51.770;8.548;2022-11-14T09:57:45;28.33;;;19.97;;
11777;SDS011;5946;51.770;8.548;2022-11-14T10:00:19;26.03;;;18.87;;
11777;SDS011;5946;51.770;8.548;2022-11-14T10:18:39;19.20;;;15.10;;
11777;SDS011;5946;51.770;8.548;2022-11-14T10:23:48;19.00;;;14.20;;
11777;SDS011;5946;51.770;8.548;2022-11-14T10:26:25;18.87;;;14.60;;
11777;SDS011;5946;51.770;8.548;2022-11-14T10:34:16;18.63;;;14.93;;
11777;SDS011;5946;51.770;8.548;2022-11-14T10:37:33;19.23;;;13.50;;
11777;SDS011;5946;51.770;8.548;2022-11-14T10:39:46;18.13;;;13.77;;
11777;SDS011;5946;51.770;8.548;2022-11-14T10:42:14;18.07;;;12.87;;
11777;SDS011;5946;51.770;8.548;2022-11-14T10:44:42;16.80;;;13.83;;
11777;SDS011;5946;51.770;8.548;2022-11-14T10:47:13;15.30;;;12.93;;
11777;SDS011;5946;51.770;8.548;2022-11-14T10:49:40;15.30;;;12.73;;
11777;SDS011;5946;51.770;8.548;2022-11-14T10:52:12;19.00;;;13.97;;
11777;SDS011;5946;51.770;8.548;2022-11-14T10:54:46;16.07;;;12.80;;
11777;SDS011;5946;51.770;8.548;2022-11-14T10:57:14;18.00;;;13.80;;
11777;SDS011;5946;51.770;8.548;2022-11-14T10:59:40;16.27;;;13.37;;
11777;SDS011;5946;51.770;8.548;2022-11-14T11:02:09;16.47;;;13.80;;
11777;SDS011;5946;51.770;8.548;2022-11-14T11:04:36;20.37;;;13.27;;
11777;SDS011;5946;51.770;8.548;2022-11-14T11:09:31;17.67;;;13.57;;
11777;SDS011;5946;51.770;8.548;2022-11-14T11:12:18;17.83;;;13.23;;
11777;SDS011;5946;51.770;8.548;2022-11-14T11:14:44;15.23;;;12.90;;
11777;SDS011;5946;51.770;8.548;2022-11-14T11:19:38;15.53;;;12.57;;
11777;SDS011;5946;51.770;8.548;2022-11-14T11:22:08;15.57;;;13.33;;
11777;SDS011;5946;51.770;8.548;2022-11-14T11:24:47;18.40;;;13.63;;
11777;SDS011;5946;51.770;8.548;2022-11-14T11:27:24;16.10;;;13.30;;
11777;SDS011;5946;51.770;8.548;2022-11-14T11:32:28;17.07;;;13.80;;
11777;SDS011;5946;51.770;8.548;2022-11-14T11:34:55;17.47;;;13.23;;
11777;SDS011;5946;51.770;8.548;2022-11-14T11:37:29;20.57;;;13.80;;
11777;SDS011;5946;51.770;8.548;2022-11-14T11:39:57;15.40;;;13.03;;
11777;SDS011;5946;51.770;8.548;2022-11-14T11:45:04;16.17;;;13.57;;
11777;SDS011;5946;51.770;8.548;2022-11-14T11:47:34;17.77;;;13.77;;
11777;SDS011;5946;51.770;8.548;2022-11-14T11:50:00;18.30;;;13.60;;
11777;SDS011;5946;51.770;8.548;2022-11-14T11:52:41;18.17;;;13.33;;
11777;SDS011;5946;51.770;8.548;2022-11-14T11:57:34;19.57;;;14.47;;
11777;SDS011;5946;51.770;8.548;2022-11-14T12:00:04;16.10;;;13.30;;
11777;SDS011;5946;51.770;8.548;2022-11-14T12:02:30;14.40;;;12.27;;
11777;SDS011;5946;51.770;8.548;2022-11-14T12:04:56;17.00;;;12.53;;
11777;SDS011;5946;51.770;8.548;2022-11-14T12:07:30;14.47;;;12.07;;
11777;SDS011;5946;51.770;8.548;2022-11-14T12:09:58;14.63;;;11.83;;
11777;SDS011;5946;51.770;8.548;2022-11-14T12:17:52;13.57;;;11.27;;
11777;SDS011;5946;51.770;8.548;2022-11-14T12:26:05;14.17;;;11.67;;
11777;SDS011;5946;51.770;8.548;2022-11-14T12:28:49;16.07;;;12.37;;
11777;SDS011;5946;51.770;8.548;2022-11-14T12:31:23;15.93;;;12.93;;
11777;SDS011;5946;51.770;8.548;2022-11-14T12:33:52;14.93;;;12.43;;
11777;SDS011;5946;51.770;8.548;2022-11-14T12:36:23;15.40;;;12.30;;
11777;SDS011;5946;51.770;8.548;2022-11-14T12:38:53;15.83;;;12.43;;
11777;SDS011;5946;51.770;8.548;2022-11-14T12:41:35;16.63;;;12.40;;
11777;SDS011;5946;51.770;8.548;2022-11-14T12:44:15;14.40;;;12.43;;
11777;SDS011;5946;51.770;8.548;2022-11-14T12:49:36;17.57;;;13.40;;
11777;SDS011;5946;51.770;8.548;2022-11-14T12:52:03;15.47;;;12.23;;
11777;SDS011;5946;51.770;8.548;2022-11-14T12:54:41;14.87;;;12.30;;
11777;SDS011;5946;51.770;8.548;2022-11-14T12:57:07;16.27;;;12.73;;
11777;SDS011;5946;51.770;8.548;2022-11-14T12:59:56;16.77;;;12.10;;
11777;SDS011;5946;51.770;8.548;2022-11-14T13:07:47;14.50;;;11.77;;
11777;SDS011;5946;51.770;8.548;2022-11-14T13:10:30;16.43;;;12.03;;
11777;SDS011;5946;51.770;8.548;2022-11-14T13:13:09;14.13;;;12.07;;
11777;SDS011;5946;51.770;8.548;2022-11-14T13:15:55;16.23;;;12.43;;
11777;SDS011;5946;51.770;8.548;2022-11-14T13:21:34;16.23;;;12.30;;
11777;SDS011;5946;51.770;8.548;2022-11-14T13:24:10;15.50;;;12.60;;
11777;SDS011;5946;51.770;8.548;2022-11-14T13:26:37;14.53;;;11.80;;
11777;SDS011;5946;51.770;8.548;2022-11-14T13:29:03;17.97;;;11.53;;
11777;SDS011;5946;51.770;8.548;2022-11-14T13:33:58;18.63;;;13.00;;
11777;SDS011;5946;51.770;8.548;2022-11-14T13:38:55;14.93;;;12.07;;
11777;SDS011;5946;51.770;8.548;2022-11-14T13:47:01;14.93;;;12.10;;
11777;SDS011;5946;51.770;8.548;2022-11-14T13:49:44;16.63;;;12.00;;
11777;SDS011;5946;51.770;8.548;2022-11-14T13:52:16;15.03;;;12.47;;
11777;SDS011;5946;51.770;8.548;2022-11-14T13:54:45;16.97;;;12.90;;
11777;SDS011;5946;51.770;8.548;2022-11-14T14:07:48;52.37;;;30.40;;
11777;SDS011;5946;51.770;8.548;2022-11-14T14:17:57;14.60;;;11.60;;
11777;SDS011;5946;51.770;8.548;2022-11-14T14:23:00;15.93;;;11.17;;
11777;SDS011;5946;51.770;8.548;2022-11-14T14:28:18;17.53;;;11.20;;
11777;SDS011;5946;51.770;8.548;2022-11-14T14:31:02;14.70;;;11.13;;
11777;SDS011;5946;51.770;8.548;2022-11-14T14:33:37;16.40;;;10.57;;
11777;SDS011;5946;51.770;8.548;2022-11-14T14:36:14;17.93;;;10.67;;
11777;SDS011;5946;51.770;8.548;2022-11-14T14:38:40;15.10;;;11.33;;
11777;SDS011;5946;51.770;8.548;2022-11-14T14:41:07;17.47;;;11.20;;
11777;SDS011;5946;51.770;8.548;2022-11-14T14:43:34;17.53;;;11.30;;
11777;SDS011;5946;51.770;8.548;2022-11-14T14:46:00;12.77;;;10.70;;
11777;SDS011;5946;51.770;8.548;2022-11-14T14:48:27;13.80;;;11.00;;
11777;SDS011;5946;51.770;8.548;2022-11-14T14:50:56;14.37;;;11.40;;
11777;SDS011;5946;51.770;8.548;2022-11-14T14:55:52;14.37;;;11.90;;
11777;SDS011;5946;51.770;8.548;2022-11-14T15:01:31;19.37;;;12.63;;
11777;SDS011;5946;51.770;8.548;2022-11-14T15:03:41;14.63;;;11.17;;
11777;SDS011;5946;51.770;8.548;2022-11-14T15:08:54;15.73;;;11.90;;
11777;SDS011;5946;51.770;8.548;2022-11-14T15:11:20;15.00;;;12.10;;
11777;SDS011;5946;51.770;8.548;2022-11-14T15:13:47;15.00;;;11.90;;
11777;SDS011;5946;51.770;8.548;2022-11-14T15:16:14;15.70;;;11.03;;
11777;SDS011;5946;51.770;8.548;2022-11-14T15:18:40;16.33;;;11.67;;
11777;SDS011;5946;51.770;8.548;2022-11-14T15:21:07;16.40;;;11.67;;
11777;SDS011;5946;51.770;8.548;2022-11-14T15:23:33;14.83;;;11.93;;
11777;SDS011;5946;51.770;8.548;2022-11-14T15:26:00;17.40;;;12.13;;
11777;SDS011;5946;51.770;8.548;2022-11-14T15:28:27;15.77;;;12.07;;
11777;SDS011;5946;51.770;8.548;2022-11-14T15:30:57;18.10;;;12.77;;
11777;SDS011;5946;51.770;8.548;2022-11-14T15:33:28;17.57;;;12.40;;
11777;SDS011;5946;51.770;8.548;2022-11-14T15:36:08;17.33;;;12.03;;
11777;SDS011;5946;51.770;8.548;2022-11-14T15:38:34;18.03;;;13.10;;
11777;SDS011;5946;51.770;8.548;2022-11-14T15:48:52;20.27;;;15.17;;
11777;SDS011;5946;51.770;8.548;2022-11-14T15:51:36;21.73;;;13.40;;
11777;SDS011;5946;51.770;8.548;2022-11-14T15:54:02;17.33;;;13.13;;
11777;SDS011;5946;51.770;8.548;2022-11-14T15:56:28;17.93;;;13.20;;
11777;SDS011;5946;51.770;8.548;2022-11-14T15:58:54;18.37;;;13.60;;
11777;SDS011;5946;51.770;8.548;2022-11-14T16:01:21;17.37;;;13.80;;
11777;SDS011;5946;51.770;8.548;2022-11-14T16:03:48;18.93;;;14.00;;
11777;SDS011;5946;51.770;8.548;2022-11-14T16:06:15;18.00;;;13.43;;
11777;SDS011;5946;51.770;8.548;2022-11-14T16:08:41;17.53;;;13.30;;
11777;SDS011;5946;51.770;8.548;2022-11-14T16:11:07;21.07;;;13.80;;
11777;SDS011;5946;51.770;8.548;2022-11-14T16:13:33;17.80;;;14.03;;
11777;SDS011;5946;51.770;8.548;2022-11-14T16:15:59;35.07;;;21.77;;
11777;SDS011;5946;51.770;8.548;2022-11-14T16:18:25;21.20;;;14.87;;
11777;SDS011;5946;51.770;8.548;2022-11-14T16:20:51;17.67;;;13.20;;
11777;SDS011;5946;51.770;8.548;2022-11-14T16:23:22;15.20;;;11.90;;
11777;SDS011;5946;51.770;8.548;2022-11-14T16:25:48;18.57;;;12.10;;
11777;SDS011;5946;51.770;8.548;2022-11-14T16:28:14;16.87;;;12.10;;
11777;SDS011;5946;51.770;8.548;2022-11-14T16:30:40;14.10;;;10.93;;
11777;SDS011;5946;51.770;8.548;2022-11-14T16:33:06;16.00;;;10.97;;